Grayslake, Illinois
Current Conditions -  °F | °C
As of 12:07 PM on Sunday 25 Jan 2015 (Local Time) from KUGN Reporting Station
Overcast Overcast  
Wind Chill: 15°   Ceiling: 7000
Heat Index: 27°   Visibility: 10mi
Dew Point: 18°   Wind: 15mph
Humidity: 69%   Direction: 30°NNE
Pressure: 29.85"   Gusts: 28mph
Location:  42.34°N, 88.04°W
Report Text: KUGN 251807Z 03013G24KT 10SM SCT024 SCT050 OVC070 M03/M08 A2985 RMK AO2 T10281078
Loading
Personal Weather Stations






























Interactive Weather Map New forecast layout! Learn more

10-Day Weather Forecast

Advertisements
Track Severe Weather on mobile